createdAt,value
2022-10-04T00:01:58.503Z,19.55
2022-10-04T00:04:54.590Z,18.13
2022-10-04T00:07:26.985Z,17.95
2022-10-04T00:10:16.094Z,18.85
2022-10-04T00:12:49.951Z,15.45
2022-10-04T00:15:27.451Z,17.70
2022-10-04T00:18:06.263Z,15.75
2022-10-04T00:20:53.860Z,18.23
2022-10-04T00:23:45.271Z,17.88
2022-10-04T00:26:28.598Z,18.77
2022-10-04T00:28:56.985Z,15.60
2022-10-04T00:31:28.059Z,15.35
2022-10-04T00:34:16.648Z,19.02
2022-10-04T00:36:57.264Z,17.20
2022-10-04T00:39:33.937Z,18.52
2022-10-04T00:42:11.331Z,21.77
2022-10-04T00:45:22.108Z,16.02
2022-10-04T00:47:49.841Z,13.25
2022-10-04T00:50:44.347Z,11.85
2022-10-04T00:53:58.835Z,14.35
2022-10-04T00:56:54.029Z,16.92
2022-10-04T00:59:28.510Z,13.80
2022-10-04T01:02:45.638Z,13.10
2022-10-04T01:05:27.414Z,13.85
2022-10-04T01:08:34.166Z,15.05
2022-10-04T01:11:19.490Z,11.13
2022-10-04T01:14:04.727Z,9.93
2022-10-04T01:16:36.613Z,8.65
2022-10-04T01:19:31.481Z,11.35
2022-10-04T01:22:15.347Z,15.55
2022-10-04T01:24:46.217Z,10.55
2022-10-04T01:27:40.169Z,7.33
2022-10-04T01:30:16.951Z,12.13
2022-10-04T01:32:45.551Z,9.57
2022-10-04T01:35:15.528Z,10.98
2022-10-04T01:37:44.031Z,9.10
2022-10-04T01:40:12.215Z,12.30
2022-10-04T01:42:51.339Z,8.45
2022-10-04T01:45:40.333Z,8.43
2022-10-04T01:48:16.074Z,11.13
2022-10-04T01:50:52.455Z,5.93
2022-10-04T01:53:41.629Z,7.35
2022-10-04T01:56:18.547Z,6.50
2022-10-04T01:58:58.776Z,6.82
2022-10-04T02:01:48.482Z,9.45
2022-10-04T02:04:29.601Z,8.18
2022-10-04T02:07:00.822Z,8.05
2022-10-04T02:09:35.862Z,10.63
2022-10-04T02:12:03.796Z,9.80
2022-10-04T02:14:38.307Z,7.30
2022-10-04T02:17:10.647Z,8.13
2022-10-04T02:19:42.704Z,9.10
2022-10-04T02:22:11.622Z,8.00
2022-10-04T02:24:45.430Z,11.57
2022-10-04T02:27:14.158Z,6.50
2022-10-04T02:29:42.668Z,8.38
2022-10-04T02:32:32.674Z,5.32
2022-10-04T02:35:00.679Z,6.28
2022-10-04T02:37:30.178Z,3.05
2022-10-04T02:40:14.290Z,2.75
2022-10-04T02:42:51.938Z,3.33
2022-10-04T02:45:56.791Z,3.60
2022-10-04T02:48:36.907Z,4.38
2022-10-04T02:51:44.806Z,5.57
2022-10-04T02:54:57.029Z,8.27
2022-10-04T02:57:25.455Z,7.88
2022-10-04T03:00:24.798Z,9.32
2022-10-04T03:03:18.140Z,9.75
2022-10-04T03:06:09.474Z,11.57
2022-10-04T03:08:59.382Z,10.65
2022-10-04T03:11:33.877Z,13.45
2022-10-04T03:14:06.445Z,11.00
2022-10-04T03:16:38.763Z,20.23
2022-10-04T03:19:08.562Z,14.25
2022-10-04T03:21:40.866Z,12.88
2022-10-04T03:24:17.138Z,10.25
2022-10-04T03:26:54.797Z,12.68
2022-10-04T03:29:27.699Z,15.57
2022-10-04T03:31:58.378Z,9.80
2022-10-04T03:34:33.702Z,10.23
2022-10-04T03:37:02.761Z,10.95
2022-10-04T03:39:38.179Z,10.70
2022-10-04T03:42:16.681Z,8.95
2022-10-04T03:44:51.868Z,8.85
2022-10-04T03:47:32.661Z,8.13
2022-10-04T03:50:13.213Z,15.68
2022-10-04T03:52:54.828Z,8.88
2022-10-04T03:55:32.670Z,14.50
2022-10-04T03:58:02.623Z,9.68
2022-10-04T04:00:31.759Z,8.75
2022-10-04T04:03:06.477Z,10.05
2022-10-04T04:05:50.205Z,14.32
2022-10-04T04:08:42.472Z,12.50
2022-10-04T04:11:24.885Z,11.38
2022-10-04T04:14:12.018Z,10.30
2022-10-04T04:16:40.687Z,11.98
2022-10-04T04:19:17.176Z,8.52
2022-10-04T04:21:46.597Z,9.25
2022-10-04T04:24:29.809Z,11.30
2022-10-04T04:27:01.622Z,9.27
2022-10-04T04:29:51.051Z,12.52
2022-10-04T04:32:20.882Z,9.13
2022-10-04T04:34:53.138Z,9.23
2022-10-04T04:37:21.255Z,9.77
2022-10-04T04:39:58.050Z,10.40
2022-10-04T04:42:33.451Z,9.77
2022-10-04T04:45:15.561Z,7.78
2022-10-04T04:47:50.534Z,7.00
2022-10-04T04:50:27.541Z,8.30
2022-10-04T04:53:26.159Z,8.88
2022-10-04T04:56:05.052Z,10.45
2022-10-04T04:58:42.112Z,5.97
2022-10-04T05:01:35.597Z,6.25
2022-10-04T05:04:14.714Z,10.38
2022-10-04T05:06:45.889Z,10.48
2022-10-04T05:09:35.554Z,9.02
2022-10-04T05:12:11.522Z,6.10
2022-10-04T05:14:46.444Z,11.77
2022-10-04T05:17:40.703Z,8.05
2022-10-04T05:20:19.757Z,7.40
2022-10-04T05:22:51.626Z,13.35
2022-10-04T05:25:34.050Z,10.15
2022-10-04T05:28:02.805Z,8.32
2022-10-04T05:30:51.911Z,6.20
2022-10-04T05:33:47.212Z,6.32
2022-10-04T05:36:52.839Z,8.95
2022-10-04T05:39:41.509Z,6.32
2022-10-04T05:42:21.441Z,9.25
2022-10-04T05:44:58.429Z,8.27
2022-10-04T05:47:30.754Z,8.15
2022-10-04T05:50:01.198Z,5.25
2022-10-04T05:52:39.685Z,7.50
2022-10-04T05:55:51.470Z,4.85
2022-10-04T05:58:57.832Z,3.35
2022-10-04T06:01:47.921Z,5.00
2022-10-04T06:04:50.065Z,5.70
2022-10-04T06:07:44.549Z,6.85
2022-10-04T06:10:43.495Z,7.70
2022-10-04T06:13:38.007Z,12.48
2022-10-04T06:16:30.585Z,4.07
2022-10-04T06:19:45.192Z,7.45
2022-10-04T06:22:19.259Z,4.38
2022-10-04T06:24:55.573Z,8.32
2022-10-04T06:27:58.247Z,6.55
2022-10-04T06:30:54.100Z,7.53
2022-10-04T06:33:33.785Z,7.65
2022-10-04T06:36:52.133Z,9.30
2022-10-04T06:39:32.466Z,6.60
2022-10-04T06:42:11.942Z,9.45
2022-10-04T06:44:58.520Z,6.75
2022-10-04T06:47:51.103Z,6.00
2022-10-04T06:50:46.141Z,7.10
2022-10-04T06:53:47.428Z,7.80
2022-10-04T06:56:21.479Z,5.37
2022-10-04T06:59:03.260Z,10.23
2022-10-04T07:04:22.463Z,9.30
2022-10-04T07:07:35.635Z,5.97
2022-10-04T07:10:39.231Z,6.35
2022-10-04T07:13:28.328Z,8.77
2022-10-04T07:16:32.807Z,6.47
2022-10-04T07:19:28.546Z,11.20
2022-10-04T07:22:08.705Z,8.48
2022-10-04T07:24:56.024Z,4.60
2022-10-04T07:28:14.997Z,6.95
2022-10-04T07:30:52.884Z,9.18
2022-10-04T07:33:28.347Z,12.05
2022-10-04T07:36:11.225Z,9.48
2022-10-04T07:38:56.021Z,9.93
2022-10-04T07:42:08.766Z,5.10
2022-10-04T07:44:41.042Z,6.57
2022-10-04T07:47:26.361Z,8.27
2022-10-04T07:49:55.810Z,7.70
2022-10-04T07:53:04.869Z,6.05
2022-10-04T07:56:12.611Z,6.95
2022-10-04T07:59:00.903Z,6.00
2022-10-04T08:02:04.189Z,6.65
2022-10-04T08:05:07.132Z,8.10
2022-10-04T08:08:21.052Z,8.18
2022-10-04T08:11:24.950Z,4.95
2022-10-04T08:14:24.414Z,5.03
2022-10-04T08:17:20.584Z,9.50
2022-10-04T08:20:06.042Z,5.57
2022-10-04T08:23:09.626Z,7.88
2022-10-04T08:26:05.183Z,6.60
2022-10-04T08:29:28.714Z,5.72
2022-10-04T08:32:30.511Z,8.77
2022-10-04T08:35:28.174Z,8.88
2022-10-04T08:38:18.116Z,7.13
2022-10-04T08:40:57.648Z,6.65
2022-10-04T08:44:31.338Z,6.20
2022-10-04T08:47:30.219Z,5.05
2022-10-04T08:50:35.184Z,7.88
2022-10-04T08:53:36.694Z,5.75
2022-10-04T08:56:43.977Z,6.72
2022-10-04T08:59:58.071Z,5.82
2022-10-04T09:02:46.536Z,8.15
2022-10-04T09:05:36.370Z,5.00
2022-10-04T09:08:42.271Z,4.85
2022-10-04T09:11:41.589Z,5.05
2022-10-04T09:14:57.067Z,3.70
2022-10-04T09:17:27.877Z,4.35
2022-10-04T09:20:36.809Z,4.00
2022-10-04T09:23:31.348Z,5.97
2022-10-04T09:26:06.833Z,4.55
2022-10-04T09:29:28.321Z,3.40
2022-10-04T09:32:32.717Z,2.65
2022-10-04T09:35:31.321Z,4.78
2022-10-04T09:38:23.185Z,4.20
2022-10-04T09:41:09.975Z,6.22
2022-10-04T09:44:24.275Z,3.65
2022-10-04T09:47:37.963Z,3.45
2022-10-04T09:51:14.194Z,4.82
2022-10-04T09:54:07.348Z,6.95
2022-10-04T09:57:06.950Z,6.80
2022-10-04T10:00:14.772Z,7.68
2022-10-04T10:03:16.003Z,5.15
2022-10-04T10:06:11.720Z,7.40
2022-10-04T10:09:51.626Z,4.07
2022-10-04T10:13:31.813Z,4.38
2022-10-04T10:16:39.462Z,4.70
2022-10-04T10:19:33.706Z,3.42
2022-10-04T10:22:53.040Z,4.28
2022-10-04T10:25:54.033Z,5.03
2022-10-04T10:28:30.845Z,3.67
2022-10-04T10:31:14.280Z,5.97
2022-10-04T10:34:19.194Z,3.80
2022-10-04T10:37:20.194Z,5.97
2022-10-04T10:40:19.612Z,3.13
2022-10-04T10:43:20.867Z,2.88
2022-10-04T10:46:40.484Z,3.67
2022-10-04T10:49:23.388Z,3.35
2022-10-04T10:53:00.318Z,5.82
2022-10-04T10:56:38.364Z,4.18
2022-10-04T10:59:30.297Z,2.60
2022-10-04T11:04:56.189Z,5.30
2022-10-04T11:08:09.566Z,2.90
2022-10-04T11:11:08.065Z,3.83
2022-10-04T11:14:33.463Z,4.78
2022-10-04T11:17:35.290Z,2.60
2022-10-04T11:20:43.530Z,3.03
2022-10-04T11:23:39.975Z,5.72
2022-10-04T11:26:48.069Z,5.85
2022-10-04T11:29:33.305Z,3.85
2022-10-04T11:32:01.151Z,4.93
2022-10-04T11:35:12.975Z,3.72
2022-10-04T11:38:02.485Z,5.82
2022-10-04T11:40:58.478Z,2.90
2022-10-04T11:43:46.795Z,7.93
2022-10-04T11:46:23.592Z,2.53
2022-10-04T11:49:04.854Z,4.97
2022-10-04T11:52:25.435Z,4.00
2022-10-04T11:55:35.270Z,2.80
2022-10-04T11:58:52.867Z,2.42
2022-10-04T12:01:51.788Z,7.18
2022-10-04T12:04:39.154Z,4.72
2022-10-04T12:08:04.064Z,4.20
2022-10-04T12:10:41.945Z,3.38
2022-10-04T12:13:38.059Z,4.60
2022-10-04T12:16:32.175Z,2.20
2022-10-04T12:19:53.930Z,6.80
2022-10-04T12:22:45.324Z,5.63
2022-10-04T12:26:09.851Z,3.88
2022-10-04T12:29:51.800Z,4.63
2022-10-04T12:35:45.995Z,6.43
2022-10-04T12:38:34.386Z,2.63
2022-10-04T12:41:49.010Z,2.72
2022-10-04T12:44:47.096Z,4.68
2022-10-04T12:47:56.542Z,2.53
2022-10-04T12:51:00.910Z,3.00
2022-10-04T12:53:55.484Z,3.75
2022-10-04T12:56:45.745Z,2.97
2022-10-04T12:59:54.160Z,2.88
2022-10-04T13:02:50.662Z,1.85
2022-10-04T13:05:51.392Z,1.42
2022-10-04T13:08:49.157Z,1.38
2022-10-04T13:11:37.048Z,3.55
2022-10-04T13:14:28.361Z,2.17
2022-10-04T13:17:39.529Z,3.20
2022-10-04T13:20:55.521Z,2.33
2022-10-04T13:23:47.656Z,4.85
2022-10-04T13:26:54.467Z,4.70
2022-10-04T13:29:43.886Z,2.88
2022-10-04T13:32:30.584Z,4.75
2022-10-04T13:35:34.421Z,3.33
2022-10-04T13:38:07.221Z,3.17
2022-10-04T13:40:48.572Z,4.95
2022-10-04T13:43:45.807Z,3.17
2022-10-04T13:46:55.674Z,3.85
2022-10-04T13:49:59.109Z,8.75
2022-10-04T13:53:00.875Z,4.25
2022-10-04T13:56:04.245Z,5.85
2022-10-04T13:58:42.012Z,4.25
2022-10-04T14:01:39.678Z,12.55
2022-10-04T14:04:17.033Z,5.95
2022-10-04T14:07:22.305Z,6.47
2022-10-04T14:10:44.336Z,5.43
2022-10-04T14:13:45.588Z,5.28
2022-10-04T14:16:45.281Z,5.83
2022-10-04T14:19:38.805Z,6.53
2022-10-04T14:22:37.738Z,9.63
2022-10-04T14:25:44.028Z,7.00
2022-10-04T14:28:58.470Z,5.93
2022-10-04T14:31:46.800Z,8.75
2022-10-04T14:34:57.385Z,8.05
2022-10-04T14:38:08.578Z,6.57
2022-10-04T14:41:20.208Z,3.10
2022-10-04T14:44:22.073Z,7.72
2022-10-04T14:47:28.775Z,5.95
2022-10-04T14:50:21.924Z,7.45
2022-10-04T14:53:28.233Z,3.53
2022-10-04T14:56:11.385Z,7.60
2022-10-04T14:59:08.100Z,7.30
2022-10-04T15:01:45.727Z,13.13
2022-10-04T15:04:41.506Z,7.72
2022-10-04T15:07:30.739Z,8.88
2022-10-04T15:10:23.948Z,8.45
2022-10-04T15:13:24.265Z,8.40
2022-10-04T15:16:14.657Z,8.52
2022-10-04T15:18:56.920Z,5.78
2022-10-04T15:21:57.507Z,4.32
2022-10-04T15:24:44.581Z,5.88
2022-10-04T15:27:36.082Z,6.88
2022-10-04T15:30:30.909Z,5.78
2022-10-04T15:33:23.980Z,5.70
2022-10-04T15:35:58.134Z,9.40
2022-10-04T15:38:37.794Z,7.97
2022-10-04T15:41:49.447Z,7.57
2022-10-04T15:45:12.662Z,4.63
2022-10-04T15:48:21.188Z,7.28
2022-10-04T15:51:59.190Z,8.13
2022-10-04T15:55:09.945Z,7.05
2022-10-04T15:58:15.606Z,10.57
2022-10-04T16:01:22.981Z,7.07
2022-10-04T16:04:17.016Z,9.77
2022-10-04T16:07:08.811Z,7.35
2022-10-04T16:12:36.123Z,5.32
2022-10-04T16:15:32.413Z,9.38
2022-10-04T16:18:48.952Z,6.47
2022-10-04T16:21:43.843Z,8.25
2022-10-04T16:24:18.441Z,7.72
2022-10-04T16:26:56.079Z,6.90
2022-10-04T16:29:35.687Z,7.35
2022-10-04T16:32:29.396Z,9.40
2022-10-04T16:35:07.942Z,8.05
2022-10-04T16:38:04.245Z,11.05
2022-10-04T16:40:58.904Z,9.98
2022-10-04T16:43:30.368Z,5.05
2022-10-04T16:46:24.872Z,8.55
2022-10-04T16:49:16.738Z,3.70
2022-10-04T16:51:50.603Z,5.55
2022-10-04T16:54:38.452Z,8.77
2022-10-04T16:57:19.818Z,7.32
2022-10-04T16:59:55.684Z,7.25
2022-10-04T17:03:04.349Z,6.22
2022-10-04T17:06:17.658Z,11.55
2022-10-04T17:09:27.838Z,7.38
2022-10-04T17:12:35.666Z,8.32
2022-10-04T17:15:27.806Z,10.45
2022-10-04T17:18:04.244Z,10.18
2022-10-04T17:20:41.254Z,12.27
2022-10-04T17:24:17.485Z,10.75
2022-10-04T17:27:18.359Z,12.40
2022-10-04T17:30:12.787Z,16.85
2022-10-04T17:32:47.271Z,7.80
2022-10-04T17:35:54.064Z,10.55
2022-10-04T17:38:54.667Z,7.50
2022-10-04T17:42:14.643Z,13.07
2022-10-04T17:45:21.226Z,11.15
2022-10-04T17:48:48.765Z,10.75
2022-10-04T17:51:41.897Z,11.48
2022-10-04T17:55:11.402Z,14.13
2022-10-04T17:58:02.164Z,8.07
2022-10-04T18:01:18.217Z,15.48
2022-10-04T18:03:54.889Z,56.90
2022-10-04T18:06:44.483Z,38.35
2022-10-04T18:09:39.971Z,29.77
2022-10-04T18:12:47.042Z,12.75
2022-10-04T18:15:34.018Z,8.20
2022-10-04T18:18:20.028Z,9.40
2022-10-04T18:20:57.105Z,9.88
2022-10-04T18:23:36.624Z,10.63
2022-10-04T18:26:11.139Z,7.82
2022-10-04T18:28:41.778Z,10.27
2022-10-04T18:31:31.015Z,7.93
2022-10-04T18:34:11.216Z,9.13
2022-10-04T18:36:54.427Z,14.02
2022-10-04T18:39:24.735Z,10.07
2022-10-04T18:42:25.328Z,11.00
2022-10-04T18:45:02.124Z,11.73
2022-10-04T18:47:41.554Z,14.18
2022-10-04T18:50:48.737Z,16.23
2022-10-04T18:53:44.392Z,13.80
2022-10-04T18:56:13.368Z,13.60
2022-10-04T18:59:06.387Z,22.55
2022-10-04T19:02:01.962Z,14.95
2022-10-04T19:05:16.052Z,10.02
2022-10-04T19:08:08.332Z,11.70
2022-10-04T19:13:16.131Z,11.07
2022-10-04T19:16:39.234Z,12.20
2022-10-04T19:19:24.429Z,8.93
2022-10-04T19:22:27.757Z,8.02
2022-10-04T19:25:32.959Z,12.15
2022-10-04T19:28:27.005Z,14.10
2022-10-04T19:31:14.006Z,9.35
2022-10-04T19:34:14.882Z,9.25
2022-10-04T19:36:52.009Z,9.52
2022-10-04T19:39:58.669Z,12.48
2022-10-04T19:42:46.661Z,7.30
2022-10-04T19:45:39.094Z,11.63
2022-10-04T19:48:25.955Z,9.13
2022-10-04T19:51:15.900Z,8.82
2022-10-04T19:53:46.084Z,12.63
2022-10-04T19:56:22.028Z,11.50
2022-10-04T19:59:10.984Z,11.65
2022-10-04T20:01:56.023Z,10.70
2022-10-04T20:04:39.047Z,11.90
2022-10-04T20:07:27.932Z,12.60
2022-10-04T20:10:21.509Z,14.02
2022-10-04T20:13:12.474Z,12.13
2022-10-04T20:15:42.867Z,12.98
2022-10-04T20:18:32.495Z,14.82
2022-10-04T20:21:00.675Z,10.27
2022-10-04T20:23:40.989Z,12.18
2022-10-04T20:26:10.599Z,12.82
2022-10-04T20:28:42.855Z,10.95
2022-10-04T20:31:31.067Z,12.00
2022-10-04T20:34:37.805Z,9.35
2022-10-04T20:37:08.617Z,10.88
2022-10-04T20:39:43.516Z,13.18
2022-10-04T20:43:10.972Z,14.60
2022-10-04T20:45:53.151Z,12.98
2022-10-04T20:48:28.036Z,14.32
2022-10-04T20:50:56.731Z,16.88
2022-10-04T20:53:32.331Z,19.10
2022-10-04T20:56:13.872Z,21.70
2022-10-04T20:58:42.053Z,22.13
2022-10-04T21:01:38.172Z,13.63
2022-10-04T21:04:33.955Z,11.93
2022-10-04T21:07:06.143Z,13.35
2022-10-04T21:09:37.385Z,11.13
2022-10-04T21:12:07.996Z,12.27
2022-10-04T21:14:38.195Z,15.32
2022-10-04T21:17:29.069Z,11.15
2022-10-04T21:19:57.387Z,14.65
2022-10-04T21:22:31.046Z,9.57
2022-10-04T21:25:06.325Z,14.65
2022-10-04T21:27:36.887Z,14.73
2022-10-04T21:30:17.181Z,12.52
2022-10-04T21:32:46.200Z,9.80
2022-10-04T21:35:14.251Z,15.73
2022-10-04T21:37:43.025Z,9.88
2022-10-04T21:40:13.315Z,10.40
2022-10-04T21:42:41.849Z,15.00
2022-10-04T21:45:10.308Z,13.80
2022-10-04T21:47:38.171Z,13.05
2022-10-04T21:50:06.638Z,19.83
2022-10-04T21:52:34.701Z,20.90
2022-10-04T21:55:02.560Z,21.63
2022-10-04T21:57:35.376Z,20.83
2022-10-04T22:01:19.715Z,17.35
2022-10-04T22:03:47.972Z,16.73
2022-10-04T22:06:17.740Z,20.00
2022-10-04T22:08:46.055Z,21.45
2022-10-04T22:11:14.221Z,18.17
2022-10-04T22:13:42.703Z,15.45
2022-10-04T22:16:11.266Z,21.20
2022-10-04T22:18:39.414Z,18.33
2022-10-04T22:21:07.565Z,17.25
2022-10-04T22:23:43.034Z,20.10
2022-10-04T22:26:17.724Z,23.00
2022-10-04T22:28:51.419Z,16.17
2022-10-04T22:31:22.599Z,18.13
2022-10-04T22:33:51.471Z,18.65
2022-10-04T22:36:40.249Z,20.23
2022-10-04T22:39:16.066Z,19.30
2022-10-04T22:42:01.493Z,22.40
2022-10-04T22:44:38.476Z,23.77
2022-10-04T22:47:13.601Z,22.65
2022-10-04T22:49:50.207Z,22.33
2022-10-04T22:52:22.392Z,20.40
2022-10-04T22:54:53.913Z,14.38
2022-10-04T22:57:21.884Z,14.18
2022-10-04T22:59:53.922Z,17.27
2022-10-04T23:02:32.259Z,9.27
2022-10-04T23:05:10.156Z,10.82
2022-10-04T23:07:38.772Z,10.50
2022-10-04T23:10:08.090Z,13.52
2022-10-04T23:12:36.457Z,16.08
2022-10-04T23:15:06.477Z,12.35
2022-10-04T23:17:39.056Z,13.73
2022-10-04T23:20:20.443Z,12.85
2022-10-04T23:22:55.114Z,15.05
2022-10-04T23:25:30.532Z,17.48
2022-10-04T23:28:19.742Z,11.40
2022-10-04T23:31:05.227Z,10.85
2022-10-04T23:33:34.668Z,11.82
2022-10-04T23:36:03.141Z,14.15
2022-10-04T23:38:31.486Z,15.50
2022-10-04T23:41:00.440Z,14.50
2022-10-04T23:43:31.832Z,15.60
2022-10-04T23:45:59.929Z,14.98
2022-10-04T23:48:32.347Z,16.58
2022-10-04T23:51:01.006Z,15.15
2022-10-04T23:53:32.511Z,14.27
2022-10-04T23:56:06.444Z,13.52
2022-10-04T23:58:39.552Z,13.07
